sensor_id;sensor_type;location;lat;lon;timestamp;pressure;altitude;pressure_sealevel;temperature;humidity
71194;BME280;58903;47.210;8.618;2023-07-09T00:01:21;94694.00;;;29.81;35.85
71194;BME280;58903;47.210;8.618;2023-07-09T00:03:47;94694.22;;;29.83;35.47
71194;BME280;58903;47.210;8.618;2023-07-09T00:06:18;94699.03;;;29.83;35.64
71194;BME280;58903;47.210;8.618;2023-07-09T00:08:46;94699.56;;;29.81;35.54
71194;BME280;58903;47.210;8.618;2023-07-09T00:11:15;94695.28;;;29.80;35.49
71194;BME280;58903;47.210;8.618;2023-07-09T00:13:44;94686.53;;;29.76;35.87
71194;BME280;58903;47.210;8.618;2023-07-09T00:16:23;94692.28;;;29.78;35.92
71194;BME280;58903;47.210;8.618;2023-07-09T00:18:54;94698.59;;;29.78;35.79
71194;BME280;58903;47.210;8.618;2023-07-09T00:21:21;94703.16;;;29.76;36.01
71194;BME280;58903;47.210;8.618;2023-07-09T00:23:49;94699.66;;;29.75;36.14
71194;BME280;58903;47.210;8.618;2023-07-09T00:26:16;94698.91;;;29.75;35.19
71194;BME280;58903;47.210;8.618;2023-07-09T00:28:43;94701.44;;;29.73;35.15
71194;BME280;58903;47.210;8.618;2023-07-09T00:31:15;94694.19;;;29.70;36.50
71194;BME280;58903;47.210;8.618;2023-07-09T00:33:43;94699.72;;;29.70;35.25
71194;BME280;58903;47.210;8.618;2023-07-09T00:36:25;94703.56;;;29.67;35.34
71194;BME280;58903;47.210;8.618;2023-07-09T00:38:55;94703.75;;;29.69;36.07
71194;BME280;58903;47.210;8.618;2023-07-09T00:41:25;94697.28;;;29.66;35.56
71194;BME280;58903;47.210;8.618;2023-07-09T00:43:52;94699.31;;;29.66;35.05
71194;BME280;58903;47.210;8.618;2023-07-09T00:49:04;94693.31;;;29.62;35.87
71194;BME280;58903;47.210;8.618;2023-07-09T00:51:34;94695.34;;;29.61;35.72
71194;BME280;58903;47.210;8.618;2023-07-09T00:54:19;94698.88;;;29.62;35.96
71194;BME280;58903;47.210;8.618;2023-07-09T00:56:52;94696.09;;;29.62;35.51
71194;BME280;58903;47.210;8.618;2023-07-09T00:59:24;94697.16;;;29.59;35.87
71194;BME280;58903;47.210;8.618;2023-07-09T01:01:59;94692.66;;;29.56;35.47
71194;BME280;58903;47.210;8.618;2023-07-09T01:04:31;94689.66;;;29.54;35.44
71194;BME280;58903;47.210;8.618;2023-07-09T01:07:09;94692.44;;;29.54;35.82
71194;BME280;58903;47.210;8.618;2023-07-09T01:09:45;94696.72;;;29.55;35.53
71194;BME280;58903;47.210;8.618;2023-07-09T01:12:28;94705.78;;;29.55;34.99
71194;BME280;58903;47.210;8.618;2023-07-09T01:15:04;94700.25;;;29.55;35.96
71194;BME280;58903;47.210;8.618;2023-07-09T01:17:57;94703.53;;;29.54;35.65
71194;BME280;58903;47.210;8.618;2023-07-09T01:20:26;94703.31;;;29.52;35.63
71194;BME280;58903;47.210;8.618;2023-07-09T01:22:56;94703.31;;;29.52;35.71
71194;BME280;58903;47.210;8.618;2023-07-09T01:25:24;94700.53;;;29.52;36.05
71194;BME280;58903;47.210;8.618;2023-07-09T01:27:52;94708.84;;;29.52;35.22
71194;BME280;58903;47.210;8.618;2023-07-09T01:30:52;94701.81;;;29.51;35.32
71194;BME280;58903;47.210;8.618;2023-07-09T01:33:34;94701.63;;;29.49;35.33
71194;BME280;58903;47.210;8.618;2023-07-09T01:36:02;94698.84;;;29.49;35.48
71194;BME280;58903;47.210;8.618;2023-07-09T01:38:28;94696.06;;;29.49;36.06
71194;BME280;58903;47.210;8.618;2023-07-09T01:41:13;94698.41;;;29.45;35.79
71194;BME280;58903;47.210;8.618;2023-07-09T01:44:06;94701.91;;;29.45;35.50
71194;BME280;58903;47.210;8.618;2023-07-09T01:46:34;94701.19;;;29.45;35.71
71194;BME280;58903;47.210;8.618;2023-07-09T01:49:10;94699.47;;;29.42;35.62
71194;BME280;58903;47.210;8.618;2023-07-09T01:51:38;94697.44;;;29.42;35.82
71194;BME280;58903;47.210;8.618;2023-07-09T01:54:35;94696.16;;;29.43;36.34
71194;BME280;58903;47.210;8.618;2023-07-09T01:57:30;94695.38;;;29.43;35.64
71194;BME280;58903;47.210;8.618;2023-07-09T02:00:19;94697.94;;;29.41;35.83
71194;BME280;58903;47.210;8.618;2023-07-09T02:02:47;94702.22;;;29.42;35.81
71194;BME280;58903;47.210;8.618;2023-07-09T02:08:36;94704.03;;;29.39;35.81
71194;BME280;58903;47.210;8.618;2023-07-09T02:11:03;94709.34;;;29.37;35.53
71194;BME280;58903;47.210;8.618;2023-07-09T02:13:30;94711.38;;;29.37;35.11
71194;BME280;58903;47.210;8.618;2023-07-09T02:16:09;94716.91;;;29.37;35.98
71194;BME280;58903;47.210;8.618;2023-07-09T02:18:46;94714.69;;;29.35;36.20
71194;BME280;58903;47.210;8.618;2023-07-09T02:21:12;94719.47;;;29.35;35.40
71194;BME280;58903;47.210;8.618;2023-07-09T02:23:42;94720.00;;;29.33;35.23
71194;BME280;58903;47.210;8.618;2023-07-09T02:26:08;94717.53;;;29.30;36.05
71194;BME280;58903;47.210;8.618;2023-07-09T02:28:40;94717.78;;;29.32;35.80
71194;BME280;58903;47.210;8.618;2023-07-09T02:31:09;94712.72;;;29.30;35.59
71194;BME280;58903;47.210;8.618;2023-07-09T02:33:35;94707.19;;;29.30;35.50
71194;BME280;58903;47.210;8.618;2023-07-09T02:36:28;94716.03;;;29.29;35.38
71194;BME280;58903;47.210;8.618;2023-07-09T02:38:54;94714.53;;;29.28;35.52
71194;BME280;58903;47.210;8.618;2023-07-09T02:41:32;94713.28;;;29.29;35.98
71194;BME280;58903;47.210;8.618;2023-07-09T02:44:03;94716.03;;;29.29;35.67
71194;BME280;58903;47.210;8.618;2023-07-09T02:46:30;94711.03;;;29.27;35.35
71194;BME280;58903;47.210;8.618;2023-07-09T02:49:18;94708.78;;;29.26;36.05
71194;BME280;58903;47.210;8.618;2023-07-09T02:51:55;94713.59;;;29.25;35.69
71194;BME280;58903;47.210;8.618;2023-07-09T02:54:27;94714.84;;;29.24;35.40
71194;BME280;58903;47.210;8.618;2023-07-09T02:56:53;94720.94;;;29.23;35.29
71194;BME280;58903;47.210;8.618;2023-07-09T02:59:19;94711.09;;;29.22;35.91
71194;BME280;58903;47.210;8.618;2023-07-09T03:01:52;94720.19;;;29.22;35.69
71194;BME280;58903;47.210;8.618;2023-07-09T03:04:21;94716.66;;;29.22;36.27
71194;BME280;58903;47.210;8.618;2023-07-09T03:06:49;94710.34;;;29.21;35.68
71194;BME280;58903;47.210;8.618;2023-07-09T03:09:24;94715.91;;;29.21;35.33
71194;BME280;58903;47.210;8.618;2023-07-09T03:11:57;94711.44;;;29.18;36.28
71194;BME280;58903;47.210;8.618;2023-07-09T03:14:23;94718.97;;;29.18;36.01
71194;BME280;58903;47.210;8.618;2023-07-09T03:17:00;94716.22;;;29.18;35.28
71194;BME280;58903;47.210;8.618;2023-07-09T03:19:54;94721.75;;;29.18;36.17
71194;BME280;58903;47.210;8.618;2023-07-09T03:22:51;94729.31;;;29.17;36.27
71194;BME280;58903;47.210;8.618;2023-07-09T03:25:31;94729.06;;;29.15;36.27
71194;BME280;58903;47.210;8.618;2023-07-09T03:27:58;94737.38;;;29.15;35.86
71194;BME280;58903;47.210;8.618;2023-07-09T03:30:42;94728.31;;;29.15;35.53
71194;BME280;58903;47.210;8.618;2023-07-09T03:33:24;94730.13;;;29.12;35.38
71194;BME280;58903;47.210;8.618;2023-07-09T03:36:16;94738.44;;;29.12;36.11
71194;BME280;58903;47.210;8.618;2023-07-09T03:38:47;94738.22;;;29.10;35.31
71194;BME280;58903;47.210;8.618;2023-07-09T03:41:16;94734.16;;;29.11;35.49
71194;BME280;58903;47.210;8.618;2023-07-09T03:43:42;94740.22;;;29.09;36.15
71194;BME280;58903;47.210;8.618;2023-07-09T03:46:12;94744.50;;;29.10;35.22
71194;BME280;58903;47.210;8.618;2023-07-09T03:48:38;94749.06;;;29.08;35.21
71194;BME280;58903;47.210;8.618;2023-07-09T03:51:05;94737.03;;;29.05;36.29
71194;BME280;58903;47.210;8.618;2023-07-09T03:53:40;94742.78;;;29.07;35.48
71194;BME280;58903;47.210;8.618;2023-07-09T03:56:23;94740.75;;;29.08;35.32
71194;BME280;58903;47.210;8.618;2023-07-09T03:58:55;94744.03;;;29.06;35.95
71194;BME280;58903;47.210;8.618;2023-07-09T04:01:24;94738.50;;;29.06;35.33
71194;BME280;58903;47.210;8.618;2023-07-09T04:03:53;94742.56;;;29.05;35.42
71194;BME280;58903;47.210;8.618;2023-07-09T04:06:40;94738.06;;;29.02;35.99
71194;BME280;58903;47.210;8.618;2023-07-09T04:09:15;94750.66;;;29.03;35.64
71194;BME280;58903;47.210;8.618;2023-07-09T04:11:44;94740.63;;;29.00;35.06
71194;BME280;58903;47.210;8.618;2023-07-09T04:14:21;94745.41;;;29.00;36.01
71194;BME280;58903;47.210;8.618;2023-07-09T04:17:14;94759.47;;;29.02;35.74
71194;BME280;58903;47.210;8.618;2023-07-09T04:19:45;94756.47;;;29.00;35.78
71194;BME280;58903;47.210;8.618;2023-07-09T04:22:11;94752.72;;;28.97;35.07
71194;BME280;58903;47.210;8.618;2023-07-09T04:24:37;94750.72;;;28.98;35.83
71194;BME280;58903;47.210;8.618;2023-07-09T04:27:05;94750.50;;;28.96;35.07
71194;BME280;58903;47.210;8.618;2023-07-09T04:29:49;94747.94;;;28.98;35.56
71194;BME280;58903;47.210;8.618;2023-07-09T04:32:29;94757.53;;;28.97;35.96
71194;BME280;58903;47.210;8.618;2023-07-09T04:34:56;94750.50;;;28.96;35.29
71194;BME280;58903;47.210;8.618;2023-07-09T04:37:24;94755.28;;;28.95;35.30
71194;BME280;58903;47.210;8.618;2023-07-09T04:39:59;94749.75;;;28.95;35.32
71194;BME280;58903;47.210;8.618;2023-07-09T04:42:46;94748.25;;;28.94;36.03
71194;BME280;58903;47.210;8.618;2023-07-09T04:45:30;94748.25;;;28.94;35.51
71194;BME280;58903;47.210;8.618;2023-07-09T04:47:56;94748.97;;;28.95;35.82
71194;BME280;58903;47.210;8.618;2023-07-09T04:50:48;94754.53;;;28.95;36.06
71194;BME280;58903;47.210;8.618;2023-07-09T04:53:17;94756.03;;;28.96;35.43
71194;BME280;58903;47.210;8.618;2023-07-09T04:55:45;94755.28;;;28.95;36.10
71194;BME280;58903;47.210;8.618;2023-07-09T04:58:13;94748.53;;;28.91;36.17
71194;BME280;58903;47.210;8.618;2023-07-09T05:00:48;94750.50;;;28.96;35.45
71194;BME280;58903;47.210;8.618;2023-07-09T05:03:19;94753.47;;;28.98;35.68
71194;BME280;58903;47.210;8.618;2023-07-09T05:05:50;94758.50;;;28.99;35.60
71194;BME280;58903;47.210;8.618;2023-07-09T05:08:16;94757.00;;;28.98;36.14
71194;BME280;58903;47.210;8.618;2023-07-09T05:10:49;94759.78;;;28.98;36.52
71194;BME280;58903;47.210;8.618;2023-07-09T05:13:16;94755.00;;;28.99;35.63
71194;BME280;58903;47.210;8.618;2023-07-09T05:15:45;94753.47;;;28.98;36.47
71194;BME280;58903;47.210;8.618;2023-07-09T05:18:13;94757.22;;;29.00;36.60
71194;BME280;58903;47.210;8.618;2023-07-09T05:21:06;94763.75;;;29.03;36.03
71194;BME280;58903;47.210;8.618;2023-07-09T05:23:41;94760.22;;;29.02;36.01
71194;BME280;58903;47.210;8.618;2023-07-09T05:26:12;94760.22;;;29.02;36.41
71194;BME280;58903;47.210;8.618;2023-07-09T05:28:43;94763.75;;;29.03;36.00
71194;BME280;58903;47.210;8.618;2023-07-09T05:31:09;94762.78;;;29.00;36.32
71194;BME280;58903;47.210;8.618;2023-07-09T05:33:35;94765.00;;;29.02;36.23
71194;BME280;58903;47.210;8.618;2023-07-09T05:36:01;94762.00;;;29.00;36.01
71194;BME280;58903;47.210;8.618;2023-07-09T05:38:30;94762.78;;;29.00;36.26
71194;BME280;58903;47.210;8.618;2023-07-09T05:41:10;94768.31;;;29.00;36.73
71194;BME280;58903;47.210;8.618;2023-07-09T05:47:15;94771.84;;;29.01;36.67
71194;BME280;58903;47.210;8.618;2023-07-09T05:49:41;94767.28;;;29.03;36.59
71194;BME280;58903;47.210;8.618;2023-07-09T05:52:07;94776.84;;;29.02;37.44
71194;BME280;58903;47.210;8.618;2023-07-09T05:54:49;94775.81;;;29.05;36.73
71194;BME280;58903;47.210;8.618;2023-07-09T05:57:25;94761.94;;;29.05;37.21
71194;BME280;58903;47.210;8.618;2023-07-09T06:00:04;94759.19;;;29.05;36.66
71194;BME280;58903;47.210;8.618;2023-07-09T06:02:44;94764.94;;;29.07;36.88
71194;BME280;58903;47.210;8.618;2023-07-09T06:05:10;94769.50;;;29.05;37.76
71194;BME280;58903;47.210;8.618;2023-07-09T06:07:41;94767.28;;;29.03;37.50
71194;BME280;58903;47.210;8.618;2023-07-09T06:10:08;94775.03;;;29.05;37.94
71194;BME280;58903;47.210;8.618;2023-07-09T06:12:36;94772.81;;;29.03;36.97
71194;BME280;58903;47.210;8.618;2023-07-09T06:15:05;94767.28;;;29.03;37.58
71194;BME280;58903;47.210;8.618;2023-07-09T06:17:43;94767.50;;;29.05;37.35
71194;BME280;58903;47.210;8.618;2023-07-09T06:20:27;94778.03;;;29.07;37.72
71194;BME280;58903;47.210;8.618;2023-07-09T06:22:53;94770.03;;;29.03;37.76
71194;BME280;58903;47.210;8.618;2023-07-09T06:25:32;94773.25;;;29.07;36.92
71194;BME280;58903;47.210;8.618;2023-07-09T06:28:07;94771.47;;;29.10;37.19
71194;BME280;58903;47.210;8.618;2023-07-09T06:30:40;94771.16;;;29.14;37.42
71194;BME280;58903;47.210;8.618;2023-07-09T06:33:16;94769.13;;;29.14;37.11
71194;BME280;58903;47.210;8.618;2023-07-09T06:35:55;94763.06;;;29.16;37.15
71194;BME280;58903;47.210;8.618;2023-07-09T06:38:55;94768.59;;;29.16;37.47
71194;BME280;58903;47.210;8.618;2023-07-09T06:41:24;94769.84;;;29.15;37.74
71194;BME280;58903;47.210;8.618;2023-07-09T06:44:08;94767.84;;;29.15;37.44
71194;BME280;58903;47.210;8.618;2023-07-09T06:46:35;94768.59;;;29.16;37.03
71194;BME280;58903;47.210;8.618;2023-07-09T06:49:22;94764.59;;;29.17;38.12
71194;BME280;58903;47.210;8.618;2023-07-09T06:52:07;94768.59;;;29.16;38.15
71194;BME280;58903;47.210;8.618;2023-07-09T06:54:35;94764.81;;;29.19;38.37
71194;BME280;58903;47.210;8.618;2023-07-09T06:57:10;94764.28;;;29.20;38.36
71194;BME280;58903;47.210;8.618;2023-07-09T06:59:49;94760.75;;;29.20;38.71
71194;BME280;58903;47.210;8.618;2023-07-09T07:02:27;94760.97;;;29.22;37.67
71194;BME280;58903;47.210;8.618;2023-07-09T07:04:55;94762.47;;;29.23;38.38
71194;BME280;58903;47.210;8.618;2023-07-09T07:07:21;94765.47;;;29.25;37.39
71194;BME280;58903;47.210;8.618;2023-07-09T07:09:48;94756.19;;;29.22;37.77
71194;BME280;58903;47.210;8.618;2023-07-09T07:12:27;94756.19;;;29.22;38.57
71194;BME280;58903;47.210;8.618;2023-07-09T07:14:54;94754.69;;;29.21;38.46
71194;BME280;58903;47.210;8.618;2023-07-09T07:17:23;94748.84;;;29.25;37.93
71194;BME280;58903;47.210;8.618;2023-07-09T07:20:05;94748.09;;;29.24;38.74
71194;BME280;58903;47.210;8.618;2023-07-09T07:22:31;94750.34;;;29.26;37.91
71194;BME280;58903;47.210;8.618;2023-07-09T07:25:02;94741.28;;;29.25;37.77
71194;BME280;58903;47.210;8.618;2023-07-09T07:27:28;94739.47;;;29.28;38.06
71194;BME280;58903;47.210;8.618;2023-07-09T07:30:04;94738.97;;;29.29;38.54
71194;BME280;58903;47.210;8.618;2023-07-09T07:32:55;94738.00;;;29.27;37.67
71194;BME280;58903;47.210;8.618;2023-07-09T07:35:57;94737.44;;;29.28;37.70
71194;BME280;58903;47.210;8.618;2023-07-09T07:38:35;94735.44;;;29.29;38.49
71194;BME280;58903;47.210;8.618;2023-07-09T07:41:10;94732.66;;;29.29;37.92
71194;BME280;58903;47.210;8.618;2023-07-09T07:43:37;94728.38;;;29.28;37.66
71194;BME280;58903;47.210;8.618;2023-07-09T07:46:03;94730.66;;;29.29;37.85
71194;BME280;58903;47.210;8.618;2023-07-09T07:48:31;94724.56;;;29.31;38.35
71194;BME280;58903;47.210;8.618;2023-07-09T07:51:22;94723.81;;;29.30;38.56
71194;BME280;58903;47.210;8.618;2023-07-09T07:53:50;94731.63;;;29.32;37.86
71194;BME280;58903;47.210;8.618;2023-07-09T07:56:24;94721.25;;;29.32;38.12
71194;BME280;58903;47.210;8.618;2023-07-09T07:58:55;94724.78;;;29.33;38.06
71194;BME280;58903;47.210;8.618;2023-07-09T08:01:28;94719.78;;;29.31;37.66
71194;BME280;58903;47.210;8.618;2023-07-09T08:04:03;94724.03;;;29.32;37.80
71194;BME280;58903;47.210;8.618;2023-07-09T08:06:36;94717.97;;;29.34;38.27
71194;BME280;58903;47.210;8.618;2023-07-09T08:09:05;94725.00;;;29.35;38.48
71194;BME280;58903;47.210;8.618;2023-07-09T08:11:32;94718.19;;;29.36;37.75
71194;BME280;58903;47.210;8.618;2023-07-09T08:14:04;94723.22;;;29.37;37.21
71194;BME280;58903;47.210;8.618;2023-07-09T08:16:32;94724.47;;;29.36;38.34
71194;BME280;58903;47.210;8.618;2023-07-09T08:19:06;94722.44;;;29.37;37.57
71194;BME280;58903;47.210;8.618;2023-07-09T08:21:37;94723.97;;;29.38;37.89
71194;BME280;58903;47.210;8.618;2023-07-09T08:24:07;94726.72;;;29.38;38.15
71194;BME280;58903;47.210;8.618;2023-07-09T08:26:36;94717.66;;;29.37;37.51
71194;BME280;58903;47.210;8.618;2023-07-09T08:29:06;94720.97;;;29.36;37.77
71194;BME280;58903;47.210;8.618;2023-07-09T08:31:32;94725.44;;;29.39;38.00
71194;BME280;58903;47.210;8.618;2023-07-09T08:34:00;94723.44;;;29.39;37.50
71194;BME280;58903;47.210;8.618;2023-07-09T08:36:27;94722.16;;;29.40;37.71
71194;BME280;58903;47.210;8.618;2023-07-09T08:38:53;94731.19;;;29.41;38.43
71194;BME280;58903;47.210;8.618;2023-07-09T08:46:48;94735.69;;;29.44;37.10
71194;BME280;58903;47.210;8.618;2023-07-09T08:49:46;94738.47;;;29.44;37.43
71194;BME280;58903;47.210;8.618;2023-07-09T08:52:36;94734.72;;;29.41;37.94
71194;BME280;58903;47.210;8.618;2023-07-09T08:55:10;94734.50;;;29.39;37.61
71194;BME280;58903;47.210;8.618;2023-07-09T08:57:41;94732.50;;;29.40;37.97
71194;BME280;58903;47.210;8.618;2023-07-09T09:00:51;94737.72;;;29.43;38.95
71194;BME280;58903;47.210;8.618;2023-07-09T09:03:11;94737.22;;;29.45;37.87
71194;BME280;58903;47.210;8.618;2023-07-09T09:05:46;94742.75;;;29.45;38.64
71194;BME280;58903;47.210;8.618;2023-07-09T09:08:22;94745.75;;;29.47;37.83
71194;BME280;58903;47.210;8.618;2023-07-09T09:13:45;94742.44;;;29.48;39.08
71194;BME280;58903;47.210;8.618;2023-07-09T09:16:27;94745.97;;;29.49;38.82
71194;BME280;58903;47.210;8.618;2023-07-09T09:18:58;94741.13;;;29.49;37.75
71194;BME280;58903;47.210;8.618;2023-07-09T09:21:37;94745.97;;;29.49;38.57
71194;BME280;58903;47.210;8.618;2023-07-09T09:24:37;94740.09;;;29.52;38.35
71194;BME280;58903;47.210;8.618;2023-07-09T09:27:08;94737.84;;;29.51;38.25
71194;BME280;58903;47.210;8.618;2023-07-09T09:29:36;94746.41;;;29.53;37.99
71194;BME280;58903;47.210;8.618;2023-07-09T09:32:28;94742.13;;;29.52;39.19
71194;BME280;58903;47.210;8.618;2023-07-09T09:34:55;94741.59;;;29.53;38.40
71194;BME280;58903;47.210;8.618;2023-07-09T09:37:32;94746.06;;;29.56;38.25
71194;BME280;58903;47.210;8.618;2023-07-09T09:40:01;94752.38;;;29.57;38.97
71194;BME280;58903;47.210;8.618;2023-07-09T09:42:28;94742.31;;;29.54;38.62
71194;BME280;58903;47.210;8.618;2023-07-09T09:44:55;94754.16;;;29.54;37.99
71194;BME280;58903;47.210;8.618;2023-07-09T09:47:26;94752.69;;;29.53;38.44
71194;BME280;58903;47.210;8.618;2023-07-09T09:49:54;94749.38;;;29.55;38.22
71194;BME280;58903;47.210;8.618;2023-07-09T09:52:29;94754.16;;;29.54;38.61
71194;BME280;58903;47.210;8.618;2023-07-09T09:55:12;94753.41;;;29.54;38.22
71194;BME280;58903;47.210;8.618;2023-07-09T09:57:48;94757.16;;;29.56;38.35
71194;BME280;58903;47.210;8.618;2023-07-09T10:00:16;94756.41;;;29.56;38.48
71194;BME280;58903;47.210;8.618;2023-07-09T10:02:46;94755.13;;;29.57;38.59
71194;BME280;58903;47.210;8.618;2023-07-09T10:05:19;94746.06;;;29.56;38.42
71194;BME280;58903;47.210;8.618;2023-07-09T10:08:08;94741.81;;;29.55;38.17
71194;BME280;58903;47.210;8.618;2023-07-09T10:10:39;94754.09;;;29.60;38.58
71194;BME280;58903;47.210;8.618;2023-07-09T10:13:31;94751.31;;;29.60;38.50
71194;BME280;58903;47.210;8.618;2023-07-09T10:19:16;94754.38;;;29.56;37.60
71194;BME280;58903;47.210;8.618;2023-07-09T10:22:05;94749.28;;;29.60;37.44
71194;BME280;58903;47.210;8.618;2023-07-09T10:25:02;94742.38;;;29.67;37.76
71194;BME280;58903;47.210;8.618;2023-07-09T10:27:56;94743.34;;;29.69;37.11
71194;BME280;58903;47.210;8.618;2023-07-09T10:33:36;94738.53;;;29.70;37.19
71194;BME280;58903;47.210;8.618;2023-07-09T10:36:16;94737.78;;;29.69;38.15
71194;BME280;58903;47.210;8.618;2023-07-09T10:39:00;94731.50;;;29.69;37.56
71194;BME280;58903;47.210;8.618;2023-07-09T10:41:41;94731.06;;;29.65;37.17
71194;BME280;58903;47.210;8.618;2023-07-09T10:47:09;94735.22;;;29.71;37.17
71194;BME280;58903;47.210;8.618;2023-07-09T10:49:40;94722.59;;;29.76;36.98
71194;BME280;58903;47.210;8.618;2023-07-09T10:52:17;94720.03;;;29.78;36.25
71194;BME280;58903;47.210;8.618;2023-07-09T10:54:59;94720.78;;;29.78;36.29
71194;BME280;58903;47.210;8.618;2023-07-09T10:58:13;94714.41;;;29.84;36.55
71194;BME280;58903;47.210;8.618;2023-07-09T11:00:46;94712.59;;;29.86;36.63
71194;BME280;58903;47.210;8.618;2023-07-09T11:05:54;94711.50;;;29.89;36.77
71194;BME280;58903;47.210;8.618;2023-07-09T11:08:38;94711.94;;;29.93;36.10
71194;BME280;58903;47.210;8.618;2023-07-09T11:14:41;94713.53;;;29.89;35.89
71194;BME280;58903;47.210;8.618;2023-07-09T11:17:20;94705.75;;;29.87;36.43
71194;BME280;58903;47.210;8.618;2023-07-09T11:20:05;94713.31;;;29.87;36.97
71194;BME280;58903;47.210;8.618;2023-07-09T11:22:39;94708.53;;;29.87;36.58
71194;BME280;58903;47.210;8.618;2023-07-09T11:25:28;94710.03;;;29.88;36.53
71194;BME280;58903;47.210;8.618;2023-07-09T11:28:20;94710.75;;;29.89;36.53
71194;BME280;58903;47.210;8.618;2023-07-09T11:31:25;94708.72;;;29.89;36.05
71194;BME280;58903;47.210;8.618;2023-07-09T11:34:27;94703.72;;;29.88;37.13
71194;BME280;58903;47.210;8.618;2023-07-09T11:39:44;94704.28;;;29.86;36.05
71194;BME280;58903;47.210;8.618;2023-07-09T11:42:32;94705.22;;;29.89;37.39
71194;BME280;58903;47.210;8.618;2023-07-09T11:45:11;94701.72;;;29.88;36.75
71194;BME280;58903;47.210;8.618;2023-07-09T11:47:59;94700.41;;;29.89;37.20
71194;BME280;58903;47.210;8.618;2023-07-09T11:50:41;94699.16;;;29.90;36.78
71194;BME280;58903;47.210;8.618;2023-07-09T11:56:28;94696.38;;;29.90;37.12
71194;BME280;58903;47.210;8.618;2023-07-09T11:58:57;94696.16;;;29.88;36.90
71194;BME280;58903;47.210;8.618;2023-07-09T12:01:33;94701.91;;;29.90;37.03
71194;BME280;58903;47.210;8.618;2023-07-09T12:04:22;94692.84;;;29.90;36.30
71194;BME280;58903;47.210;8.618;2023-07-09T12:07:16;94695.84;;;29.92;36.52
71194;BME280;58903;47.210;8.618;2023-07-09T12:09:53;94697.56;;;29.95;36.79
71194;BME280;58903;47.210;8.618;2023-07-09T12:12:33;94701.81;;;29.96;36.85
71194;BME280;58903;47.210;8.618;2023-07-09T12:14:59;94706.81;;;29.97;36.81
71194;BME280;58903;47.210;8.618;2023-07-09T12:17:27;94704.56;;;29.96;36.60
71194;BME280;58903;47.210;8.618;2023-07-09T12:20:04;94706.81;;;29.97;36.80
71194;BME280;58903;47.210;8.618;2023-07-09T12:22:32;94702.78;;;29.98;37.61
71194;BME280;58903;47.210;8.618;2023-07-09T12:25:36;94705.00;;;30.00;36.55
71194;BME280;58903;47.210;8.618;2023-07-09T12:28:14;94697.97;;;29.99;36.61
71194;BME280;58903;47.210;8.618;2023-07-09T12:30:52;94689.13;;;30.00;37.37
71194;BME280;58903;47.210;8.618;2023-07-09T12:33:26;94683.56;;;30.00;37.27
71194;BME280;58903;47.210;8.618;2023-07-09T12:36:06;94685.06;;;30.01;36.63
71194;BME280;58903;47.210;8.618;2023-07-09T12:38:56;94684.00;;;30.04;36.96
71194;BME280;58903;47.210;8.618;2023-07-09T12:41:50;94676.75;;;30.01;37.64
71194;BME280;58903;47.210;8.618;2023-07-09T12:44:34;94675.47;;;30.02;37.02
71194;BME280;58903;47.210;8.618;2023-07-09T12:47:02;94680.38;;;30.09;34.71
71194;BME280;58903;47.210;8.618;2023-07-09T12:49:37;94679.72;;;30.16;35.01
71194;BME280;58903;47.210;8.618;2023-07-09T12:52:21;94674.28;;;30.24;34.56
71194;BME280;58903;47.210;8.618;2023-07-09T12:55:23;94669.88;;;30.28;34.46
71194;BME280;58903;47.210;8.618;2023-07-09T12:57:56;94668.41;;;30.27;34.57
71194;BME280;58903;47.210;8.618;2023-07-09T13:00:34;94662.88;;;30.27;34.78
71194;BME280;58903;47.210;8.618;2023-07-09T13:03:31;94666.16;;;30.26;35.41
71194;BME280;58903;47.210;8.618;2023-07-09T13:06:34;94662.41;;;30.23;34.73
71194;BME280;58903;47.210;8.618;2023-07-09T13:09:15;94666.50;;;30.22;35.43
71194;BME280;58903;47.210;8.618;2023-07-09T13:11:45;94666.28;;;30.20;35.17
71194;BME280;58903;47.210;8.618;2023-07-09T13:14:27;94665.19;;;30.23;35.76
71194;BME280;58903;47.210;8.618;2023-07-09T13:17:21;94660.41;;;30.24;36.54
71194;BME280;58903;47.210;8.618;2023-07-09T13:19:47;94662.66;;;30.25;35.88
71194;BME280;58903;47.210;8.618;2023-07-09T13:22:23;94664.88;;;30.27;37.17
71194;BME280;58903;47.210;8.618;2023-07-09T13:24:54;94657.09;;;30.25;37.17
71194;BME280;58903;47.210;8.618;2023-07-09T13:27:21;94655.81;;;30.26;37.16
71194;BME280;58903;47.210;8.618;2023-07-09T13:29:58;94651.75;;;30.27;37.07
71194;BME280;58903;47.210;8.618;2023-07-09T13:32:25;94648.44;;;30.29;37.03
71194;BME280;58903;47.210;8.618;2023-07-09T13:35:13;94640.34;;;30.31;37.33
71194;BME280;58903;47.210;8.618;2023-07-09T13:37:41;94642.91;;;30.29;36.92
71194;BME280;58903;47.210;8.618;2023-07-09T13:40:22;94641.09;;;30.31;37.27
71194;BME280;58903;47.210;8.618;2023-07-09T13:42:49;94640.34;;;30.31;37.33
71194;BME280;58903;47.210;8.618;2023-07-09T13:45:24;94638.34;;;30.31;37.56
71194;BME280;58903;47.210;8.618;2023-07-09T13:47:52;94640.34;;;30.31;37.48
71194;BME280;58903;47.210;8.618;2023-07-09T13:50:19;94645.38;;;30.32;37.20
71194;BME280;58903;47.210;8.618;2023-07-09T13:53:17;94634.81;;;30.31;34.79
71194;BME280;58903;47.210;8.618;2023-07-09T13:55:54;94634.88;;;30.38;34.73
71194;BME280;58903;47.210;8.618;2023-07-09T13:58:24;94625.16;;;30.45;35.10
71194;BME280;58903;47.210;8.618;2023-07-09T14:00:58;94636.16;;;30.50;35.21
71194;BME280;58903;47.210;8.618;2023-07-09T14:03:33;94633.59;;;30.52;35.06
71194;BME280;58903;47.210;8.618;2023-07-09T14:06:09;94628.03;;;30.52;34.47
71194;BME280;58903;47.210;8.618;2023-07-09T14:08:47;94622.06;;;30.48;35.87
71194;BME280;58903;47.210;8.618;2023-07-09T14:11:16;94614.69;;;30.51;36.14
71194;BME280;58903;47.210;8.618;2023-07-09T14:13:46;94625.81;;;30.51;34.80
71194;BME280;58903;47.210;8.618;2023-07-09T14:16:21;94614.00;;;30.58;34.81
71194;BME280;58903;47.210;8.618;2023-07-09T14:18:48;94623.28;;;30.61;34.24
71194;BME280;58903;47.210;8.618;2023-07-09T14:21:26;94601.84;;;30.61;34.80
71194;BME280;58903;47.210;8.618;2023-07-09T14:23:53;94608.47;;;30.58;35.52